sensor_id;sensor_type;location;lat;lon;timestamp;P1;durP1;ratioP1;P2;durP2;ratioP2
52798;SDS011;38667;42.872;74.622;2022-09-09T00:00:08;19.17;;;5.57;;
52798;SDS011;38667;42.872;74.622;2022-09-09T00:02:40;14.02;;;5.95;;
52798;SDS011;38667;42.872;74.622;2022-09-09T00:05:14;14.70;;;5.65;;
52798;SDS011;38667;42.872;74.622;2022-09-09T00:07:48;15.20;;;5.45;;
52798;SDS011;38667;42.872;74.622;2022-09-09T00:10:18;23.02;;;5.43;;
52798;SDS011;38667;42.872;74.622;2022-09-09T00:12:52;15.10;;;5.25;;
52798;SDS011;38667;42.872;74.622;2022-09-09T00:15:25;18.25;;;5.65;;
52798;SDS011;38667;42.872;74.622;2022-09-09T00:17:56;13.98;;;4.78;;
52798;SDS011;38667;42.872;74.622;2022-09-09T00:20:30;14.75;;;5.35;;
52798;SDS011;38667;42.872;74.622;2022-09-09T00:23:04;16.83;;;5.57;;
52798;SDS011;38667;42.872;74.622;2022-09-09T00:25:39;18.10;;;6.28;;
52798;SDS011;38667;42.872;74.622;2022-09-09T00:28:13;16.85;;;5.75;;
52798;SDS011;38667;42.872;74.622;2022-09-09T00:30:43;15.93;;;6.20;;
52798;SDS011;38667;42.872;74.622;2022-09-09T00:33:11;20.40;;;5.05;;
52798;SDS011;38667;42.872;74.622;2022-09-09T00:35:40;11.82;;;5.18;;
52798;SDS011;38667;42.872;74.622;2022-09-09T00:38:12;15.43;;;5.30;;
52798;SDS011;38667;42.872;74.622;2022-09-09T00:40:41;19.30;;;6.35;;
52798;SDS011;38667;42.872;74.622;2022-09-09T00:43:21;14.77;;;6.88;;
52798;SDS011;38667;42.872;74.622;2022-09-09T00:45:58;27.02;;;7.75;;
52798;SDS011;38667;42.872;74.622;2022-09-09T00:48:37;22.38;;;7.22;;
52798;SDS011;38667;42.872;74.622;2022-09-09T00:51:13;16.98;;;6.10;;
52798;SDS011;38667;42.872;74.622;2022-09-09T00:53:58;26.02;;;7.07;;
52798;SDS011;38667;42.872;74.622;2022-09-09T00:56:42;19.30;;;6.53;;
52798;SDS011;38667;42.872;74.622;2022-09-09T00:59:18;21.50;;;6.60;;
52798;SDS011;38667;42.872;74.622;2022-09-09T01:01:52;20.80;;;6.63;;
52798;SDS011;38667;42.872;74.622;2022-09-09T01:04:20;17.90;;;6.50;;
52798;SDS011;38667;42.872;74.622;2022-09-09T01:06:59;19.00;;;7.38;;
52798;SDS011;38667;42.872;74.622;2022-09-09T01:09:32;36.50;;;8.23;;
52798;SDS011;38667;42.872;74.622;2022-09-09T01:12:07;18.75;;;7.30;;
52798;SDS011;38667;42.872;74.622;2022-09-09T01:14:40;23.83;;;9.70;;
52798;SDS011;38667;42.872;74.622;2022-09-09T01:17:09;24.33;;;9.98;;
52798;SDS011;38667;42.872;74.622;2022-09-09T01:19:41;25.30;;;8.82;;
52798;SDS011;38667;42.872;74.622;2022-09-09T01:22:18;24.40;;;8.50;;
52798;SDS011;38667;42.872;74.622;2022-09-09T01:25:01;33.05;;;9.70;;
52798;SDS011;38667;42.872;74.622;2022-09-09T01:27:40;28.98;;;8.63;;
52798;SDS011;38667;42.872;74.622;2022-09-09T01:30:09;37.08;;;10.27;;
52798;SDS011;38667;42.872;74.622;2022-09-09T01:32:41;30.75;;;11.73;;
52798;SDS011;38667;42.872;74.622;2022-09-09T01:35:10;35.00;;;11.70;;
52798;SDS011;38667;42.872;74.622;2022-09-09T01:37:39;33.17;;;10.32;;
52798;SDS011;38667;42.872;74.622;2022-09-09T01:40:06;33.08;;;9.45;;
52798;SDS011;38667;42.872;74.622;2022-09-09T01:42:33;24.70;;;9.25;;
52798;SDS011;38667;42.872;74.622;2022-09-09T01:45:00;26.13;;;8.70;;
52798;SDS011;38667;42.872;74.622;2022-09-09T01:47:27;32.15;;;10.02;;
52798;SDS011;38667;42.872;74.622;2022-09-09T01:49:53;31.77;;;10.07;;
52798;SDS011;38667;42.872;74.622;2022-09-09T01:52:19;27.23;;;9.82;;
52798;SDS011;38667;42.872;74.622;2022-09-09T01:54:46;25.02;;;9.35;;
52798;SDS011;38667;42.872;74.622;2022-09-09T01:57:15;31.33;;;8.93;;
52798;SDS011;38667;42.872;74.622;2022-09-09T01:59:48;24.27;;;9.32;;
52798;SDS011;38667;42.872;74.622;2022-09-09T02:02:24;28.90;;;9.75;;
52798;SDS011;38667;42.872;74.622;2022-09-09T02:04:54;28.15;;;8.80;;
52798;SDS011;38667;42.872;74.622;2022-09-09T02:07:28;33.72;;;9.05;;
52798;SDS011;38667;42.872;74.622;2022-09-09T02:10:05;23.75;;;7.40;;
52798;SDS011;38667;42.872;74.622;2022-09-09T02:12:35;19.60;;;8.60;;
52798;SDS011;38667;42.872;74.622;2022-09-09T02:15:05;25.33;;;8.32;;
52798;SDS011;38667;42.872;74.622;2022-09-09T02:17:42;25.85;;;8.63;;
52798;SDS011;38667;42.872;74.622;2022-09-09T02:20:12;25.65;;;9.75;;
52798;SDS011;38667;42.872;74.622;2022-09-09T02:22:39;27.92;;;10.52;;
52798;SDS011;38667;42.872;74.622;2022-09-09T02:25:09;26.67;;;10.32;;
52798;SDS011;38667;42.872;74.622;2022-09-09T02:27:39;23.00;;;10.38;;
52798;SDS011;38667;42.872;74.622;2022-09-09T02:30:08;20.58;;;9.93;;
52798;SDS011;38667;42.872;74.622;2022-09-09T02:32:35;19.85;;;9.95;;
52798;SDS011;38667;42.872;74.622;2022-09-09T02:35:05;25.95;;;9.18;;
52798;SDS011;38667;42.872;74.622;2022-09-09T02:37:35;27.77;;;7.32;;
52798;SDS011;38667;42.872;74.622;2022-09-09T02:40:03;16.42;;;7.65;;
52798;SDS011;38667;42.872;74.622;2022-09-09T02:42:30;20.20;;;7.57;;
52798;SDS011;38667;42.872;74.622;2022-09-09T02:44:56;17.05;;;7.20;;
52798;SDS011;38667;42.872;74.622;2022-09-09T02:47:27;23.58;;;7.72;;
52798;SDS011;38667;42.872;74.622;2022-09-09T02:50:02;18.20;;;7.25;;
52798;SDS011;38667;42.872;74.622;2022-09-09T02:52:42;16.33;;;7.25;;
52798;SDS011;38667;42.872;74.622;2022-09-09T02:55:21;19.88;;;7.30;;
52798;SDS011;38667;42.872;74.622;2022-09-09T02:57:55;18.15;;;7.55;;
52798;SDS011;38667;42.872;74.622;2022-09-09T03:00:24;18.85;;;7.93;;
52798;SDS011;38667;42.872;74.622;2022-09-09T03:02:51;22.98;;;7.28;;
52798;SDS011;38667;42.872;74.622;2022-09-09T03:05:20;23.35;;;7.53;;
52798;SDS011;38667;42.872;74.622;2022-09-09T03:07:46;25.17;;;7.35;;
52798;SDS011;38667;42.872;74.622;2022-09-09T03:10:13;22.42;;;6.82;;
52798;SDS011;38667;42.872;74.622;2022-09-09T03:12:39;17.73;;;7.20;;
52798;SDS011;38667;42.872;74.622;2022-09-09T03:15:06;25.23;;;7.05;;
52798;SDS011;38667;42.872;74.622;2022-09-09T03:17:33;17.33;;;6.38;;
52798;SDS011;38667;42.872;74.622;2022-09-09T03:19:59;17.85;;;6.07;;
52798;SDS011;38667;42.872;74.622;2022-09-09T03:22:27;14.65;;;6.07;;
52798;SDS011;38667;42.872;74.622;2022-09-09T03:24:53;13.82;;;6.07;;
52798;SDS011;38667;42.872;74.622;2022-09-09T03:27:20;15.77;;;6.68;;
52798;SDS011;38667;42.872;74.622;2022-09-09T03:29:46;17.10;;;6.18;;
52798;SDS011;38667;42.872;74.622;2022-09-09T03:32:12;15.23;;;5.80;;
52798;SDS011;38667;42.872;74.622;2022-09-09T03:34:39;12.18;;;5.75;;
52798;SDS011;38667;42.872;74.622;2022-09-09T03:37:05;16.70;;;6.25;;
52798;SDS011;38667;42.872;74.622;2022-09-09T03:39:33;18.85;;;6.05;;
52798;SDS011;38667;42.872;74.622;2022-09-09T03:41:59;14.05;;;5.78;;
52798;SDS011;38667;42.872;74.622;2022-09-09T03:44:26;20.73;;;6.07;;
52798;SDS011;38667;42.872;74.622;2022-09-09T03:46:52;25.23;;;6.50;;
52798;SDS011;38667;42.872;74.622;2022-09-09T03:49:18;16.35;;;7.05;;
52798;SDS011;38667;42.872;74.622;2022-09-09T03:51:45;22.23;;;6.85;;
52798;SDS011;38667;42.872;74.622;2022-09-09T03:54:11;17.67;;;6.45;;
52798;SDS011;38667;42.872;74.622;2022-09-09T03:56:39;16.98;;;6.25;;
52798;SDS011;38667;42.872;74.622;2022-09-09T03:59:05;23.42;;;6.97;;
52798;SDS011;38667;42.872;74.622;2022-09-09T04:01:31;21.48;;;7.28;;
52798;SDS011;38667;42.872;74.622;2022-09-09T04:03:58;21.73;;;7.32;;
52798;SDS011;38667;42.872;74.622;2022-09-09T04:06:24;14.35;;;6.70;;
52798;SDS011;38667;42.872;74.622;2022-09-09T04:08:51;17.55;;;6.93;;
52798;SDS011;38667;42.872;74.622;2022-09-09T04:11:17;20.33;;;9.82;;
52798;SDS011;38667;42.872;74.622;2022-09-09T04:13:45;19.63;;;8.05;;
52798;SDS011;38667;42.872;74.622;2022-09-09T04:16:11;21.73;;;7.88;;
52798;SDS011;38667;42.872;74.622;2022-09-09T04:18:38;13.23;;;7.15;;
52798;SDS011;38667;42.872;74.622;2022-09-09T04:21:05;20.67;;;7.10;;
52798;SDS011;38667;42.872;74.622;2022-09-09T04:23:31;16.92;;;6.55;;
52798;SDS011;38667;42.872;74.622;2022-09-09T04:25:58;19.27;;;6.15;;
52798;SDS011;38667;42.872;74.622;2022-09-09T04:28:26;19.13;;;6.18;;
52798;SDS011;38667;42.872;74.622;2022-09-09T04:30:55;21.83;;;6.47;;
52798;SDS011;38667;42.872;74.622;2022-09-09T04:33:23;14.02;;;6.00;;
52798;SDS011;38667;42.872;74.622;2022-09-09T04:35:49;15.50;;;7.13;;
52798;SDS011;38667;42.872;74.622;2022-09-09T04:38:16;20.52;;;7.38;;
52798;SDS011;38667;42.872;74.622;2022-09-09T04:40:43;17.10;;;6.03;;
52798;SDS011;38667;42.872;74.622;2022-09-09T04:43:11;13.85;;;6.25;;
52798;SDS011;38667;42.872;74.622;2022-09-09T04:45:37;17.60;;;6.20;;
52798;SDS011;38667;42.872;74.622;2022-09-09T04:48:05;18.15;;;6.72;;
52798;SDS011;38667;42.872;74.622;2022-09-09T04:50:31;19.45;;;6.32;;
52798;SDS011;38667;42.872;74.622;2022-09-09T04:52:59;16.33;;;6.30;;
52798;SDS011;38667;42.872;74.622;2022-09-09T04:55:26;19.92;;;6.38;;
52798;SDS011;38667;42.872;74.622;2022-09-09T04:57:52;14.07;;;6.45;;
52798;SDS011;38667;42.872;74.622;2022-09-09T05:00:19;12.05;;;5.80;;
52798;SDS011;38667;42.872;74.622;2022-09-09T05:02:45;14.32;;;6.47;;
52798;SDS011;38667;42.872;74.622;2022-09-09T05:05:13;16.20;;;6.20;;
52798;SDS011;38667;42.872;74.622;2022-09-09T05:07:39;14.93;;;5.60;;
52798;SDS011;38667;42.872;74.622;2022-09-09T05:10:06;22.98;;;6.35;;
52798;SDS011;38667;42.872;74.622;2022-09-09T05:12:33;17.45;;;6.65;;
52798;SDS011;38667;42.872;74.622;2022-09-09T05:14:59;15.48;;;7.45;;
52798;SDS011;38667;42.872;74.622;2022-09-09T05:17:25;22.73;;;6.57;;
52798;SDS011;38667;42.872;74.622;2022-09-09T05:19:51;19.75;;;6.13;;
52798;SDS011;38667;42.872;74.622;2022-09-09T05:22:20;20.80;;;7.35;;
52798;SDS011;38667;42.872;74.622;2022-09-09T05:24:46;17.83;;;6.15;;
52798;SDS011;38667;42.872;74.622;2022-09-09T05:27:12;17.90;;;6.60;;
52798;SDS011;38667;42.872;74.622;2022-09-09T05:29:39;14.63;;;5.70;;
52798;SDS011;38667;42.872;74.622;2022-09-09T05:32:05;19.77;;;6.03;;
52798;SDS011;38667;42.872;74.622;2022-09-09T05:34:31;17.58;;;6.50;;
52798;SDS011;38667;42.872;74.622;2022-09-09T05:36:58;16.67;;;5.60;;
52798;SDS011;38667;42.872;74.622;2022-09-09T05:39:25;16.48;;;5.85;;
52798;SDS011;38667;42.872;74.622;2022-09-09T05:41:52;15.63;;;6.18;;
52798;SDS011;38667;42.872;74.622;2022-09-09T05:44:18;17.02;;;5.97;;
52798;SDS011;38667;42.872;74.622;2022-09-09T05:46:44;13.68;;;5.75;;
52798;SDS011;38667;42.872;74.622;2022-09-09T05:49:10;15.90;;;6.13;;
52798;SDS011;38667;42.872;74.622;2022-09-09T05:51:37;12.65;;;5.50;;
52798;SDS011;38667;42.872;74.622;2022-09-09T05:54:03;12.30;;;5.55;;
52798;SDS011;38667;42.872;74.622;2022-09-09T05:56:31;14.13;;;5.03;;
52798;SDS011;38667;42.872;74.622;2022-09-09T05:58:57;16.55;;;4.80;;
52798;SDS011;38667;42.872;74.622;2022-09-09T06:01:25;11.07;;;4.65;;
52798;SDS011;38667;42.872;74.622;2022-09-09T06:03:52;12.10;;;4.88;;
52798;SDS011;38667;42.872;74.622;2022-09-09T06:06:19;10.27;;;5.28;;
52798;SDS011;38667;42.872;74.622;2022-09-09T06:08:46;14.90;;;4.80;;
52798;SDS011;38667;42.872;74.622;2022-09-09T06:11:13;9.88;;;4.25;;
52798;SDS011;38667;42.872;74.622;2022-09-09T06:13:42;13.20;;;4.70;;
52798;SDS011;38667;42.872;74.622;2022-09-09T06:16:09;12.50;;;4.47;;
52798;SDS011;38667;42.872;74.622;2022-09-09T06:18:36;12.32;;;5.15;;
52798;SDS011;38667;42.872;74.622;2022-09-09T06:21:03;14.45;;;5.15;;
52798;SDS011;38667;42.872;74.622;2022-09-09T06:23:31;10.77;;;5.45;;
52798;SDS011;38667;42.872;74.622;2022-09-09T06:26:04;11.38;;;4.47;;
52798;SDS011;38667;42.872;74.622;2022-09-09T06:28:32;10.18;;;4.68;;
52798;SDS011;38667;42.872;74.622;2022-09-09T06:31:01;15.25;;;5.15;;
52798;SDS011;38667;42.872;74.622;2022-09-09T06:33:30;11.15;;;4.50;;
52798;SDS011;38667;42.872;74.622;2022-09-09T06:35:58;11.18;;;6.40;;
52798;SDS011;38667;42.872;74.622;2022-09-09T06:38:24;10.27;;;4.68;;
52798;SDS011;38667;42.872;74.622;2022-09-09T06:40:51;12.07;;;5.43;;
52798;SDS011;38667;42.872;74.622;2022-09-09T06:43:18;13.32;;;4.35;;
52798;SDS011;38667;42.872;74.622;2022-09-09T06:45:44;10.75;;;4.90;;
52798;SDS011;38667;42.872;74.622;2022-09-09T06:48:20;10.90;;;4.40;;
52798;SDS011;38667;42.872;74.622;2022-09-09T06:50:46;12.52;;;3.95;;
52798;SDS011;38667;42.872;74.622;2022-09-09T06:53:15;10.07;;;3.97;;
52798;SDS011;38667;42.872;74.622;2022-09-09T06:55:42;11.88;;;4.20;;
52798;SDS011;38667;42.872;74.622;2022-09-09T06:58:08;13.93;;;4.13;;
52798;SDS011;38667;42.872;74.622;2022-09-09T07:00:35;10.77;;;5.43;;
52798;SDS011;38667;42.872;74.622;2022-09-09T07:03:01;7.45;;;4.18;;
52798;SDS011;38667;42.872;74.622;2022-09-09T07:05:29;11.55;;;4.10;;
52798;SDS011;38667;42.872;74.622;2022-09-09T07:07:55;11.40;;;4.30;;
52798;SDS011;38667;42.872;74.622;2022-09-09T07:10:21;6.40;;;3.22;;
52798;SDS011;38667;42.872;74.622;2022-09-09T07:12:50;10.13;;;3.60;;
52798;SDS011;38667;42.872;74.622;2022-09-09T07:15:16;11.88;;;3.80;;
52798;SDS011;38667;42.872;74.622;2022-09-09T07:17:42;9.48;;;4.18;;
52798;SDS011;38667;42.872;74.622;2022-09-09T07:20:09;12.52;;;3.35;;
52798;SDS011;38667;42.872;74.622;2022-09-09T07:22:37;10.27;;;3.78;;
52798;SDS011;38667;42.872;74.622;2022-09-09T07:25:03;10.98;;;3.83;;
52798;SDS011;38667;42.872;74.622;2022-09-09T07:27:30;14.27;;;3.88;;
52798;SDS011;38667;42.872;74.622;2022-09-09T07:29:57;11.57;;;3.65;;
52798;SDS011;38667;42.872;74.622;2022-09-09T07:32:23;7.63;;;4.25;;
52798;SDS011;38667;42.872;74.622;2022-09-09T07:34:49;15.57;;;4.18;;
52798;SDS011;38667;42.872;74.622;2022-09-09T07:37:15;12.50;;;3.78;;
52798;SDS011;38667;42.872;74.622;2022-09-09T07:39:43;6.07;;;3.50;;
52798;SDS011;38667;42.872;74.622;2022-09-09T07:42:10;11.15;;;4.18;;
52798;SDS011;38667;42.872;74.622;2022-09-09T07:44:37;9.77;;;3.58;;
52798;SDS011;38667;42.872;74.622;2022-09-09T07:47:03;10.88;;;4.25;;
52798;SDS011;38667;42.872;74.622;2022-09-09T07:49:30;6.32;;;3.42;;
52798;SDS011;38667;42.872;74.622;2022-09-09T07:51:56;7.60;;;3.50;;
52798;SDS011;38667;42.872;74.622;2022-09-09T07:54:23;10.05;;;3.85;;
52798;SDS011;38667;42.872;74.622;2022-09-09T07:56:51;10.10;;;4.05;;
52798;SDS011;38667;42.872;74.622;2022-09-09T07:59:17;8.73;;;3.42;;
52798;SDS011;38667;42.872;74.622;2022-09-09T08:01:45;5.55;;;3.85;;
52798;SDS011;38667;42.872;74.622;2022-09-09T08:04:12;7.88;;;4.05;;
52798;SDS011;38667;42.872;74.622;2022-09-09T08:06:41;12.13;;;3.60;;
52798;SDS011;38667;42.872;74.622;2022-09-09T08:09:09;8.20;;;3.45;;
52798;SDS011;38667;42.872;74.622;2022-09-09T08:11:35;11.82;;;3.90;;
52798;SDS011;38667;42.872;74.622;2022-09-09T08:14:04;10.02;;;4.18;;
52798;SDS011;38667;42.872;74.622;2022-09-09T08:16:31;10.98;;;4.43;;
52798;SDS011;38667;42.872;74.622;2022-09-09T08:18:59;12.43;;;4.10;;
52798;SDS011;38667;42.872;74.622;2022-09-09T08:21:26;11.32;;;3.88;;
52798;SDS011;38667;42.872;74.622;2022-09-09T08:23:54;8.52;;;3.88;;
52798;SDS011;38667;42.872;74.622;2022-09-09T08:26:22;9.45;;;4.22;;
52798;SDS011;38667;42.872;74.622;2022-09-09T08:28:49;6.82;;;3.75;;
52798;SDS011;38667;42.872;74.622;2022-09-09T08:31:19;14.40;;;5.30;;
52798;SDS011;38667;42.872;74.622;2022-09-09T08:33:47;10.45;;;3.97;;
52798;SDS011;38667;42.872;74.622;2022-09-09T08:36:15;9.88;;;4.40;;
52798;SDS011;38667;42.872;74.622;2022-09-09T08:38:47;11.05;;;4.00;;
52798;SDS011;38667;42.872;74.622;2022-09-09T08:41:17;8.30;;;3.60;;
52798;SDS011;38667;42.872;74.622;2022-09-09T08:44:06;9.18;;;3.83;;
52798;SDS011;38667;42.872;74.622;2022-09-09T08:46:38;11.57;;;4.05;;
52798;SDS011;38667;42.872;74.622;2022-09-09T08:49:18;8.55;;;3.47;;
52798;SDS011;38667;42.872;74.622;2022-09-09T08:51:56;10.40;;;3.97;;
52798;SDS011;38667;42.872;74.622;2022-09-09T08:54:23;12.02;;;3.70;;
52798;SDS011;38667;42.872;74.622;2022-09-09T08:56:53;9.95;;;4.40;;
52798;SDS011;38667;42.872;74.622;2022-09-09T08:59:21;11.55;;;3.90;;
52798;SDS011;38667;42.872;74.622;2022-09-09T09:01:53;6.20;;;3.30;;
